createdAt,value
2019-03-19T00:00:08.597Z,3.23
2019-03-19T00:01:08.621Z,3.18
2019-03-19T00:02:08.575Z,3.16
2019-03-19T00:03:08.562Z,3.14
2019-03-19T00:04:08.567Z,3.16
2019-03-19T00:05:08.542Z,3.11
2019-03-19T00:06:08.551Z,3.11
2019-03-19T00:07:08.518Z,3.11
2019-03-19T00:08:08.513Z,3.16
2019-03-19T00:09:08.514Z,3.11
2019-03-19T00:10:08.493Z,3.25
2019-03-19T00:11:08.475Z,3.26
2019-03-19T00:12:08.511Z,3.23
2019-03-19T00:13:08.474Z,3.26
2019-03-19T00:14:08.443Z,3.23
2019-03-19T00:15:08.449Z,3.18
2019-03-19T00:16:08.427Z,3.23
2019-03-19T00:17:08.408Z,3.21
2019-03-19T00:18:08.437Z,3.13
2019-03-19T00:19:08.388Z,3.05
2019-03-19T00:20:08.408Z,3.19
2019-03-19T00:21:08.364Z,3.18
2019-03-19T00:22:08.354Z,3.16
2019-03-19T00:23:08.347Z,3.13
2019-03-19T00:24:08.360Z,3.14
2019-03-19T00:25:08.325Z,3.19
2019-03-19T00:26:08.331Z,3.10
2019-03-19T00:27:08.303Z,3.04
2019-03-19T00:28:08.285Z,3.04
2019-03-19T00:29:08.278Z,3.18
2019-03-19T00:30:08.290Z,3.07
2019-03-19T00:31:08.255Z,3.03
2019-03-19T00:32:08.257Z,3.11
2019-03-19T00:33:08.239Z,3.07
2019-03-19T00:34:08.220Z,3.13
2019-03-19T00:35:08.215Z,3.00
2019-03-19T00:36:08.200Z,3.07
2019-03-19T00:37:08.238Z,3.03
2019-03-19T00:38:08.319Z,3.05
2019-03-19T00:39:08.169Z,3.11
2019-03-19T00:40:08.156Z,3.07
2019-03-19T00:41:08.144Z,3.08
2019-03-19T00:42:08.138Z,2.98
2019-03-19T00:43:08.121Z,3.07
2019-03-19T00:44:08.145Z,3.04
2019-03-19T00:45:08.103Z,2.95
2019-03-19T00:46:08.088Z,2.97
2019-03-19T00:47:08.082Z,2.98
2019-03-19T00:48:08.089Z,2.80
2019-03-19T00:49:08.057Z,2.83
2019-03-19T00:50:08.082Z,2.86
2019-03-19T00:51:08.034Z,2.80
2019-03-19T00:52:08.026Z,2.82
2019-03-19T00:53:08.012Z,2.74
2019-03-19T00:54:08.015Z,2.65
2019-03-19T00:55:07.996Z,2.69
2019-03-19T00:56:07.980Z,2.72
2019-03-19T00:57:08.027Z,2.71
2019-03-19T00:58:07.956Z,2.72
2019-03-19T00:59:07.965Z,2.69
2019-03-19T01:00:07.938Z,2.68
2019-03-19T01:01:07.937Z,2.71
2019-03-19T01:02:07.923Z,2.69
2019-03-19T01:03:07.998Z,2.71
2019-03-19T01:04:07.891Z,2.74
2019-03-19T01:05:07.880Z,2.68
2019-03-19T01:06:07.869Z,2.72
2019-03-19T01:07:07.856Z,2.71
2019-03-19T01:08:07.847Z,2.65
2019-03-19T01:09:07.899Z,2.72
2019-03-19T01:10:07.824Z,2.56
2019-03-19T01:11:07.829Z,2.74
2019-03-19T01:12:07.809Z,2.64
2019-03-19T01:13:07.792Z,2.71
2019-03-19T01:14:07.792Z,2.72
2019-03-19T01:15:07.805Z,2.67
2019-03-19T01:16:07.760Z,2.61
2019-03-19T01:17:07.761Z,2.64
2019-03-19T01:18:07.738Z,2.54
2019-03-19T01:19:07.725Z,2.61
2019-03-19T01:20:07.737Z,2.57
2019-03-19T01:21:07.719Z,2.51
2019-03-19T01:22:07.714Z,2.47
2019-03-19T01:23:07.685Z,2.49
2019-03-19T01:24:07.670Z,2.54
2019-03-19T01:25:07.657Z,2.49
2019-03-19T01:26:07.690Z,2.46
2019-03-19T01:27:07.654Z,2.56
2019-03-19T01:28:07.621Z,2.56
2019-03-19T01:29:07.612Z,2.57
2019-03-19T01:30:07.602Z,2.62
2019-03-19T01:31:07.595Z,2.61
2019-03-19T01:32:07.639Z,2.50
2019-03-19T01:33:07.591Z,2.57
2019-03-19T01:34:07.558Z,2.53
2019-03-19T01:35:07.547Z,2.47
2019-03-19T01:36:07.536Z,2.46
2019-03-19T01:37:07.525Z,2.49
2019-03-19T01:38:07.568Z,2.38
2019-03-19T01:39:07.517Z,2.33
2019-03-19T01:40:07.495Z,2.33
2019-03-19T01:41:07.492Z,2.39
2019-03-19T01:42:07.472Z,2.26
2019-03-19T01:43:07.460Z,2.22
2019-03-19T01:44:07.449Z,2.24
2019-03-19T01:45:07.497Z,2.28
2019-03-19T01:46:07.423Z,2.25
2019-03-19T01:47:07.426Z,2.15
2019-03-19T01:48:07.427Z,2.22
2019-03-19T01:49:07.394Z,2.17
2019-03-19T01:50:07.393Z,2.22
2019-03-19T01:51:07.402Z,2.15
2019-03-19T01:52:07.359Z,2.18
2019-03-19T01:53:07.366Z,2.22
2019-03-19T01:54:07.339Z,2.28
2019-03-19T01:55:07.329Z,2.29
2019-03-19T01:56:07.315Z,2.26
2019-03-19T01:57:07.346Z,2.18
2019-03-19T01:58:07.301Z,2.22
2019-03-19T01:59:07.296Z,2.14
2019-03-19T02:00:07.273Z,2.17
2019-03-19T02:01:07.277Z,2.18
2019-03-19T02:02:07.250Z,2.22
2019-03-19T02:03:07.286Z,2.15
2019-03-19T02:04:07.228Z,2.15
2019-03-19T02:05:07.219Z,2.20
2019-03-19T02:06:07.209Z,2.14
2019-03-19T02:07:07.213Z,2.15
2019-03-19T02:08:07.192Z,2.13
2019-03-19T02:09:07.199Z,2.26
2019-03-19T02:10:07.161Z,2.25
2019-03-19T02:11:07.153Z,2.20
2019-03-19T02:12:07.139Z,2.20
2019-03-19T02:13:07.140Z,2.26
2019-03-19T02:14:07.116Z,2.20
2019-03-19T02:15:07.154Z,2.20
2019-03-19T02:16:07.096Z,2.18
2019-03-19T02:17:07.102Z,2.10
2019-03-19T02:18:07.074Z,2.08
2019-03-19T02:19:07.063Z,2.13
2019-03-19T02:20:07.055Z,2.13
2019-03-19T02:21:07.093Z,2.11
2019-03-19T02:22:07.030Z,2.11
2019-03-19T02:23:07.032Z,2.13
2019-03-19T02:24:07.021Z,2.10
2019-03-19T02:25:07.003Z,2.07
2019-03-19T02:26:16.006Z,2.07
2019-03-19T02:27:08.016Z,2.07
2019-03-19T02:28:06.964Z,2.11
2019-03-19T02:29:06.954Z,2.08
2019-03-19T02:30:06.941Z,2.14
2019-03-19T02:31:06.956Z,2.06
2019-03-19T02:32:06.923Z,2.04
2019-03-19T02:33:06.950Z,2.02
2019-03-19T02:34:06.896Z,2.02
2019-03-19T02:35:06.885Z,2.07
2019-03-19T02:36:06.877Z,1.94
2019-03-19T02:37:06.884Z,2.06
2019-03-19T02:38:06.857Z,1.91
2019-03-19T02:39:06.888Z,1.95
2019-03-19T02:40:06.839Z,2.00
2019-03-19T02:41:06.832Z,1.95
2019-03-19T02:42:06.817Z,1.97
2019-03-19T02:43:06.826Z,1.92
2019-03-19T02:44:06.806Z,1.97
2019-03-19T02:45:06.827Z,2.00
2019-03-19T02:46:06.766Z,1.99
2019-03-19T02:47:06.754Z,1.94
2019-03-19T02:48:06.775Z,1.95
2019-03-19T02:49:06.750Z,2.02
2019-03-19T02:50:06.721Z,2.11
2019-03-19T02:51:06.763Z,2.13
2019-03-19T02:52:06.697Z,2.07
2019-03-19T02:53:06.695Z,2.10
2019-03-19T02:54:06.691Z,2.17
2019-03-19T02:55:06.664Z,2.22
2019-03-19T02:56:06.655Z,2.25
2019-03-19T02:57:06.700Z,2.13
2019-03-19T02:58:06.638Z,2.08
2019-03-19T02:59:06.641Z,2.08
2019-03-19T03:00:06.614Z,2.18
2019-03-19T03:01:06.599Z,2.14
2019-03-19T03:02:06.588Z,2.13
2019-03-19T03:03:06.627Z,2.10
2019-03-19T03:04:06.567Z,2.15
2019-03-19T03:05:06.578Z,2.11
2019-03-19T03:06:06.544Z,2.08
2019-03-19T03:07:06.533Z,2.10
2019-03-19T03:08:06.525Z,2.13
2019-03-19T03:09:06.565Z,2.00
2019-03-19T03:10:06.516Z,2.11
2019-03-19T03:11:06.516Z,2.04
2019-03-19T03:12:06.485Z,2.04
2019-03-19T03:13:06.474Z,1.91
2019-03-19T03:14:06.456Z,2.04
2019-03-19T03:15:06.449Z,1.94
2019-03-19T03:16:06.450Z,1.95
2019-03-19T03:17:06.483Z,1.91
2019-03-19T03:18:06.410Z,1.92
2019-03-19T03:19:06.399Z,1.85
2019-03-19T03:20:06.392Z,1.94
2019-03-19T03:21:06.381Z,1.88
2019-03-19T03:22:06.386Z,1.89
2019-03-19T03:23:06.410Z,1.84
2019-03-19T03:24:06.351Z,1.89
2019-03-19T03:25:06.342Z,1.94
2019-03-19T03:26:06.337Z,1.89
2019-03-19T03:27:06.326Z,1.92
2019-03-19T03:28:06.346Z,1.84
2019-03-19T03:29:06.290Z,1.85
2019-03-19T03:30:06.321Z,1.97
2019-03-19T03:31:06.304Z,1.97
2019-03-19T03:32:06.264Z,1.94
2019-03-19T03:33:06.276Z,1.80
2019-03-19T03:34:06.235Z,1.94
2019-03-19T03:35:06.237Z,1.89
2019-03-19T03:36:06.263Z,1.85
2019-03-19T03:37:06.203Z,1.87
2019-03-19T03:38:06.199Z,1.92
2019-03-19T03:39:06.205Z,1.92
2019-03-19T03:40:06.175Z,1.89
2019-03-19T03:41:06.169Z,1.78
2019-03-19T03:42:06.198Z,1.85
2019-03-19T03:43:06.137Z,1.88
2019-03-19T03:44:06.123Z,1.84
2019-03-19T03:45:06.150Z,1.73
2019-03-19T03:46:06.110Z,1.80
2019-03-19T03:47:06.093Z,1.77
2019-03-19T03:48:06.122Z,1.73
2019-03-19T03:49:06.081Z,1.73
2019-03-19T03:50:06.074Z,1.70
2019-03-19T03:51:06.062Z,1.77
2019-03-19T03:52:06.038Z,1.71
2019-03-19T03:53:06.031Z,1.71
2019-03-19T03:54:06.062Z,1.67
2019-03-19T03:55:06.004Z,1.77
2019-03-19T03:56:06.006Z,1.73
2019-03-19T03:57:05.982Z,1.74
2019-03-19T03:58:05.973Z,1.70
2019-03-19T03:59:05.961Z,1.78
2019-03-19T04:00:06.013Z,1.73
2019-03-19T04:01:05.939Z,1.74
2019-03-19T04:02:05.945Z,1.80
2019-03-19T04:03:05.915Z,1.77
2019-03-19T04:04:05.906Z,1.78
2019-03-19T04:05:05.889Z,1.71
2019-03-19T04:06:05.933Z,1.77
2019-03-19T04:07:05.870Z,1.63
2019-03-19T04:08:05.897Z,1.77
2019-03-19T04:09:09.125Z,1.77
2019-03-19T04:10:05.850Z,1.67
2019-03-19T04:11:05.824Z,1.58
2019-03-19T04:12:05.874Z,1.60
2019-03-19T04:13:05.837Z,1.68
2019-03-19T04:14:05.792Z,1.63
2019-03-19T04:15:05.784Z,1.66
2019-03-19T04:16:05.772Z,1.59
2019-03-19T04:17:05.761Z,1.73
2019-03-19T04:18:05.806Z,1.60
2019-03-19T04:19:05.778Z,1.58
2019-03-19T04:20:05.727Z,1.53
2019-03-19T04:21:05.724Z,1.50
2019-03-19T04:22:05.712Z,1.56
2019-03-19T04:23:05.698Z,1.55
2019-03-19T04:24:05.701Z,1.55
2019-03-19T04:25:05.786Z,1.56
2019-03-19T04:26:05.660Z,1.59
2019-03-19T04:27:15.363Z,1.56
2019-03-19T04:28:06.637Z,1.53
2019-03-19T04:29:05.656Z,1.56
2019-03-19T04:30:05.634Z,1.56
2019-03-19T04:31:05.619Z,1.55
2019-03-19T04:32:05.650Z,1.59
2019-03-19T04:33:05.585Z,1.55
2019-03-19T04:34:05.575Z,1.48
2019-03-19T04:35:05.591Z,1.53
2019-03-19T04:36:05.551Z,1.58
2019-03-19T04:37:05.541Z,1.56
2019-03-19T04:38:05.562Z,1.53
2019-03-19T04:39:05.523Z,1.52
2019-03-19T04:40:05.510Z,1.50
2019-03-19T04:41:05.506Z,1.53
2019-03-19T04:42:05.487Z,1.52
2019-03-19T04:43:05.487Z,1.56
2019-03-19T04:44:05.505Z,1.70
2019-03-19T04:45:05.451Z,1.55
2019-03-19T04:46:05.441Z,1.56
2019-03-19T04:47:05.430Z,1.58
2019-03-19T04:48:05.441Z,1.56
2019-03-19T04:49:05.407Z,1.53
2019-03-19T04:50:05.455Z,1.50
2019-03-19T04:51:05.385Z,1.58
2019-03-19T04:52:05.375Z,1.56
2019-03-19T04:53:05.361Z,1.58
2019-03-19T04:54:05.375Z,1.50
2019-03-19T04:55:05.341Z,1.52
2019-03-19T04:56:05.362Z,1.55
2019-03-19T04:57:05.318Z,1.49
2019-03-19T04:58:05.307Z,1.53
2019-03-19T04:59:05.297Z,1.53
2019-03-19T05:00:05.303Z,1.50
2019-03-19T05:01:05.277Z,1.55
2019-03-19T05:02:05.308Z,1.53
2019-03-19T05:03:05.251Z,1.52
2019-03-19T05:04:05.248Z,1.60
2019-03-19T05:05:05.231Z,1.55
2019-03-19T05:06:05.235Z,1.59
2019-03-19T05:07:05.217Z,1.55
2019-03-19T05:08:05.240Z,1.50
2019-03-19T05:09:05.190Z,1.49
2019-03-19T05:10:05.176Z,1.53
2019-03-19T05:11:05.184Z,1.56
2019-03-19T05:12:05.155Z,1.44
2019-03-19T05:13:05.141Z,1.50
2019-03-19T05:14:05.183Z,1.49
2019-03-19T05:15:05.119Z,1.50
2019-03-19T05:16:05.163Z,1.53
2019-03-19T05:17:05.115Z,1.40
2019-03-19T05:18:05.086Z,1.56
2019-03-19T05:19:05.078Z,1.49
2019-03-19T05:20:05.102Z,1.41
2019-03-19T05:21:05.053Z,1.37
2019-03-19T05:22:05.042Z,1.31
2019-03-19T05:23:05.061Z,1.41
2019-03-19T05:24:05.024Z,1.48
2019-03-19T05:25:05.006Z,1.48
2019-03-19T05:26:05.033Z,1.38
2019-03-19T05:27:05.035Z,1.38
2019-03-19T05:28:04.976Z,1.42
2019-03-19T05:29:04.978Z,1.34
2019-03-19T05:30:04.956Z,1.40
2019-03-19T05:31:04.962Z,1.38
2019-03-19T05:32:04.991Z,1.40
2019-03-19T05:33:04.919Z,1.35
2019-03-19T05:34:04.978Z,1.41
2019-03-19T05:35:04.930Z,1.35
2019-03-19T05:36:04.942Z,1.44
2019-03-19T05:37:04.880Z,1.38
2019-03-19T05:38:04.891Z,1.42
2019-03-19T05:39:04.856Z,1.45
2019-03-19T05:40:04.846Z,1.42
2019-03-19T05:41:04.840Z,1.37
2019-03-19T05:42:04.841Z,1.38
2019-03-19T05:43:12.383Z,1.35
2019-03-19T05:44:04.802Z,1.38
2019-03-19T05:45:04.791Z,1.38
2019-03-19T05:46:04.775Z,1.38
2019-03-19T05:47:04.768Z,1.41
2019-03-19T05:48:04.767Z,1.42
2019-03-19T05:49:04.752Z,1.44
2019-03-19T05:50:04.744Z,1.42
2019-03-19T05:51:04.719Z,1.44
2019-03-19T05:52:04.712Z,1.41
2019-03-19T05:53:04.711Z,1.45
2019-03-19T05:54:04.713Z,1.53
2019-03-19T05:55:04.673Z,1.48
2019-03-19T05:56:04.672Z,1.48
2019-03-19T05:57:04.666Z,1.55
2019-03-19T05:58:04.661Z,1.52
2019-03-19T05:59:04.637Z,1.55
2019-03-19T06:00:04.626Z,1.59
2019-03-19T06:01:04.622Z,1.56
2019-03-19T06:02:04.597Z,1.59
2019-03-19T06:03:04.587Z,1.55
2019-03-19T06:04:04.591Z,1.53
2019-03-19T06:05:04.590Z,1.58
2019-03-19T06:06:04.552Z,1.53
2019-03-19T06:07:04.544Z,1.53
2019-03-19T06:08:04.550Z,1.52
2019-03-19T06:09:04.543Z,1.49
2019-03-19T06:10:04.515Z,1.50
2019-03-19T06:11:04.503Z,1.55
2019-03-19T06:12:04.521Z,1.50
2019-03-19T06:13:04.476Z,1.55
2019-03-19T06:14:04.475Z,1.45
2019-03-19T06:15:04.479Z,1.45
2019-03-19T06:16:04.450Z,1.50
2019-03-19T06:17:04.434Z,1.45
2019-03-19T06:18:04.452Z,1.58
2019-03-19T06:19:04.409Z,1.56
2019-03-19T06:20:04.402Z,1.55
2019-03-19T06:21:04.427Z,1.55
2019-03-19T06:22:04.399Z,1.55
2019-03-19T06:23:04.413Z,1.60
2019-03-19T06:24:04.355Z,1.60
2019-03-19T06:25:04.375Z,1.71
2019-03-19T06:26:04.380Z,1.67
2019-03-19T06:27:04.437Z,1.68
2019-03-19T06:28:04.363Z,1.63
2019-03-19T06:29:04.344Z,1.74
2019-03-19T06:30:04.303Z,1.74
2019-03-19T06:31:04.285Z,1.71
2019-03-19T06:32:04.300Z,1.67
2019-03-19T06:33:04.283Z,1.74
2019-03-19T06:34:04.292Z,1.70
2019-03-19T06:35:04.234Z,1.74
2019-03-19T06:36:04.231Z,1.91
2019-03-19T06:37:04.218Z,1.94
2019-03-19T06:38:04.199Z,1.89
2019-03-19T06:39:04.219Z,1.95
2019-03-19T06:40:04.181Z,1.95
2019-03-19T06:41:04.166Z,2.06
2019-03-19T06:42:04.165Z,2.06
2019-03-19T06:43:04.151Z,2.02
2019-03-19T06:44:04.138Z,2.14
2019-03-19T06:45:04.139Z,2.13
2019-03-19T06:46:04.116Z,2.22
2019-03-19T06:47:04.102Z,2.10
2019-03-19T06:48:04.093Z,2.13
2019-03-19T06:49:04.106Z,2.25
2019-03-19T06:50:04.080Z,2.20
2019-03-19T06:51:04.089Z,2.20
2019-03-19T06:52:04.051Z,2.28
2019-03-19T06:53:04.033Z,2.28
2019-03-19T06:54:04.023Z,2.31
2019-03-19T06:55:04.011Z,2.36
2019-03-19T06:56:04.002Z,2.32
2019-03-19T06:57:04.020Z,2.39
2019-03-19T06:58:10.953Z,2.43
2019-03-19T06:59:04.970Z,2.47
2019-03-19T07:00:03.957Z,2.53
2019-03-19T07:01:03.947Z,2.65
2019-03-19T07:02:03.956Z,2.49
2019-03-19T07:03:03.937Z,2.53
2019-03-19T07:04:03.915Z,2.57
2019-03-19T07:05:03.905Z,2.65
2019-03-19T07:06:03.894Z,2.72
2019-03-19T07:07:03.880Z,2.75
2019-03-19T07:08:03.882Z,2.85
2019-03-19T07:09:03.870Z,2.83
2019-03-19T07:10:03.861Z,2.82
2019-03-19T07:11:03.845Z,2.90
2019-03-19T07:12:03.824Z,2.86
2019-03-19T07:13:03.819Z,3.05
2019-03-19T07:14:03.819Z,3.13
2019-03-19T07:15:03.824Z,3.22
2019-03-19T07:16:03.844Z,3.23
2019-03-19T07:17:03.770Z,3.28
2019-03-19T07:18:03.760Z,3.42
2019-03-19T07:19:03.754Z,3.70
2019-03-19T07:20:03.738Z,4.34
2019-03-19T07:21:03.726Z,4.78
2019-03-19T07:22:03.747Z,4.71
2019-03-19T07:23:03.719Z,4.73
2019-03-19T07:24:03.694Z,4.58
2019-03-19T07:25:03.681Z,4.48
2019-03-19T07:26:03.673Z,4.26
2019-03-19T07:27:03.663Z,4.49
2019-03-19T07:28:03.698Z,4.55
2019-03-19T07:29:03.653Z,4.53
2019-03-19T07:30:03.631Z,4.63
2019-03-19T07:31:03.639Z,4.73
2019-03-19T07:32:03.606Z,5.11
2019-03-19T07:33:03.614Z,4.89
2019-03-19T07:34:03.600Z,4.67
2019-03-19T07:35:03.583Z,4.55
2019-03-19T07:36:06.145Z,4.87
2019-03-19T07:37:03.573Z,4.77
2019-03-19T07:38:03.544Z,4.84
2019-03-19T07:39:03.531Z,5.00
2019-03-19T07:40:03.520Z,5.05
2019-03-19T07:41:03.523Z,4.97
2019-03-19T07:42:03.495Z,5.10
2019-03-19T07:43:03.521Z,5.61
2019-03-19T07:44:03.476Z,5.89
2019-03-19T07:45:03.465Z,5.89
2019-03-19T07:46:03.451Z,5.73
2019-03-19T07:47:03.471Z,5.79
2019-03-19T07:48:03.465Z,5.87
2019-03-19T07:49:03.417Z,5.84
2019-03-19T07:50:03.407Z,5.99
2019-03-19T07:51:03.394Z,6.31
2019-03-19T07:52:03.391Z,6.31
2019-03-19T07:53:03.373Z,6.28
2019-03-19T07:54:03.386Z,6.24
2019-03-19T07:55:03.350Z,6.27
2019-03-19T07:56:03.341Z,6.27
2019-03-19T07:57:03.330Z,6.24
2019-03-19T07:58:03.319Z,6.33
2019-03-19T07:59:03.322Z,6.35
2019-03-19T08:00:03.310Z,6.09
2019-03-19T08:01:03.327Z,6.19
2019-03-19T08:02:03.276Z,6.36
2019-03-19T08:03:03.314Z,6.48
2019-03-19T08:04:05.012Z,6.33
2019-03-19T08:05:03.271Z,6.24
2019-03-19T08:06:03.247Z,6.11
2019-03-19T08:07:03.218Z,6.31
2019-03-19T08:08:03.208Z,6.26
2019-03-19T08:09:03.197Z,6.24
2019-03-19T08:10:03.188Z,6.27
2019-03-19T08:11:03.189Z,6.38
2019-03-19T08:12:03.178Z,6.48
2019-03-19T08:13:03.169Z,6.69
2019-03-19T08:14:03.143Z,6.82
2019-03-19T08:15:03.136Z,6.79
2019-03-19T08:16:03.144Z,6.84
2019-03-19T08:17:03.108Z,6.77
2019-03-19T08:18:03.102Z,6.85
2019-03-19T08:19:03.129Z,7.02
2019-03-19T08:20:03.078Z,7.23
2019-03-19T08:21:03.069Z,7.18
2019-03-19T08:22:03.070Z,7.13
2019-03-19T08:23:03.043Z,7.40
2019-03-19T08:24:03.032Z,7.45
2019-03-19T08:25:03.037Z,7.63
2019-03-19T08:26:03.012Z,7.58
2019-03-19T08:27:02.999Z,7.50
2019-03-19T08:28:03.003Z,7.72
2019-03-19T08:29:02.976Z,7.56
2019-03-19T08:30:02.965Z,7.60
2019-03-19T08:31:02.995Z,7.51
2019-03-19T08:32:02.947Z,7.54
2019-03-19T08:33:02.952Z,7.43
2019-03-19T08:34:02.924Z,7.25
2019-03-19T08:35:02.912Z,7.36
2019-03-19T08:36:09.303Z,7.45
2019-03-19T08:37:03.899Z,7.50
2019-03-19T08:38:02.876Z,7.53
2019-03-19T08:39:02.879Z,7.58
2019-03-19T08:40:02.875Z,7.66
2019-03-19T08:41:02.856Z,7.82
2019-03-19T08:42:02.837Z,7.67
2019-03-19T08:43:02.831Z,7.56
2019-03-19T08:44:02.851Z,7.70
2019-03-19T08:45:02.825Z,7.91
2019-03-19T08:46:02.792Z,8.05
2019-03-19T08:47:02.779Z,8.01
2019-03-19T08:48:02.810Z,8.08
2019-03-19T08:49:02.762Z,8.12
2019-03-19T08:50:02.788Z,8.31
2019-03-19T08:51:02.732Z,8.38
2019-03-19T08:52:02.727Z,8.45
2019-03-19T08:53:02.712Z,8.61
2019-03-19T08:54:02.700Z,8.60
2019-03-19T08:55:02.692Z,8.69
2019-03-19T08:56:02.706Z,8.81
2019-03-19T08:57:02.668Z,8.91
2019-03-19T08:58:02.662Z,9.02
2019-03-19T08:59:06.053Z,8.84
2019-03-19T09:00:02.635Z,8.95
2019-03-19T09:01:02.633Z,9.04
2019-03-19T09:02:02.624Z,8.99
2019-03-19T09:03:02.628Z,9.13
2019-03-19T09:04:02.591Z,9.02
2019-03-19T09:05:03.174Z,9.08
2019-03-19T09:06:02.587Z,9.22
2019-03-19T09:07:02.557Z,9.32
2019-03-19T09:08:02.548Z,9.44
2019-03-19T09:09:02.554Z,9.51
2019-03-19T09:10:02.526Z,9.44
2019-03-19T09:11:02.515Z,9.41
2019-03-19T09:12:02.521Z,9.36
2019-03-19T09:13:02.491Z,9.40
2019-03-19T09:14:02.512Z,9.25
2019-03-19T09:15:02.499Z,9.28
2019-03-19T09:16:02.464Z,9.28
2019-03-19T09:17:02.447Z,9.26
2019-03-19T09:18:02.449Z,9.37
2019-03-19T09:19:02.437Z,9.56
2019-03-19T09:20:02.416Z,9.41
2019-03-19T09:21:02.415Z,9.23
2019-03-19T09:22:02.395Z,9.21
2019-03-19T09:23:02.393Z,9.19
2019-03-19T09:24:02.371Z,9.29
2019-03-19T09:25:02.380Z,9.36
2019-03-19T09:26:02.348Z,9.25
2019-03-19T09:27:02.369Z,9.34
2019-03-19T09:28:02.351Z,9.18
2019-03-19T09:29:02.325Z,9.34
2019-03-19T09:30:02.318Z,9.50
2019-03-19T09:31:02.293Z,9.59
2019-03-19T09:32:02.283Z,9.61
2019-03-19T09:33:02.271Z,9.83
2019-03-19T09:34:02.269Z,9.87
2019-03-19T09:35:02.258Z,9.82
2019-03-19T09:36:02.248Z,9.84
2019-03-19T09:37:02.226Z,9.92
2019-03-19T09:38:02.218Z,9.83
2019-03-19T09:39:02.203Z,9.68
2019-03-19T09:40:02.202Z,9.47
2019-03-19T09:41:02.214Z,9.46
2019-03-19T09:42:02.171Z,9.43
2019-03-19T09:43:02.160Z,9.43
2019-03-19T09:44:02.178Z,9.37
2019-03-19T09:45:02.141Z,8.95
2019-03-19T09:46:02.126Z,9.04
2019-03-19T09:47:02.157Z,9.04
2019-03-19T09:48:02.107Z,9.21
2019-03-19T09:49:02.098Z,9.21
2019-03-19T09:50:02.087Z,9.25
2019-03-19T09:51:02.073Z,9.48
2019-03-19T09:52:02.060Z,9.48
2019-03-19T09:53:02.072Z,9.56
2019-03-19T09:54:02.039Z,9.61
2019-03-19T09:55:02.053Z,9.56
2019-03-19T09:56:02.019Z,9.66
2019-03-19T09:57:02.006Z,9.77
2019-03-19T09:58:02.007Z,9.91
2019-03-19T09:59:02.035Z,10.13
2019-03-19T10:00:01.973Z,10.16
2019-03-19T10:01:01.963Z,10.22
2019-03-19T10:02:01.993Z,10.16
2019-03-19T10:03:01.953Z,10.30
2019-03-19T10:04:01.943Z,10.41
2019-03-19T10:05:01.927Z,10.56
2019-03-19T10:06:13.625Z,10.53
2019-03-19T10:07:06.262Z,10.57
2019-03-19T10:08:01.889Z,10.38
2019-03-19T10:09:01.923Z,10.34
2019-03-19T10:10:01.863Z,10.60
2019-03-19T10:11:01.897Z,10.68
2019-03-19T10:12:01.842Z,10.82
2019-03-19T10:13:01.847Z,10.99
2019-03-19T10:14:01.832Z,11.10
2019-03-19T10:15:01.808Z,11.18
2019-03-19T10:16:01.809Z,11.32
2019-03-19T10:17:01.809Z,11.17
2019-03-19T10:18:01.778Z,11.00
2019-03-19T10:19:01.837Z,10.82
2019-03-19T10:20:01.756Z,10.53
2019-03-19T10:21:01.742Z,10.67
2019-03-19T10:22:01.731Z,10.44
2019-03-19T10:23:01.755Z,10.31
2019-03-19T10:24:01.750Z,10.40
2019-03-19T10:25:01.721Z,10.57
2019-03-19T10:26:01.687Z,10.53
2019-03-19T10:27:01.684Z,10.64
2019-03-19T10:28:01.672Z,10.86
2019-03-19T10:29:01.667Z,10.71
2019-03-19T10:30:01.689Z,10.93
2019-03-19T10:31:01.635Z,11.08
2019-03-19T10:32:01.623Z,11.22
2019-03-19T10:33:01.618Z,11.30
2019-03-19T10:34:01.600Z,11.19
2019-03-19T10:35:01.588Z,11.05
2019-03-19T10:36:01.603Z,11.05
2019-03-19T10:37:01.566Z,11.14
2019-03-19T10:38:01.555Z,11.32
2019-03-19T10:39:01.543Z,11.44
2019-03-19T10:40:01.535Z,11.51
2019-03-19T10:41:01.548Z,11.54
2019-03-19T10:42:01.522Z,11.55
2019-03-19T10:43:01.511Z,11.70
2019-03-19T10:44:01.494Z,11.84
2019-03-19T10:45:01.501Z,11.86
2019-03-19T10:46:01.465Z,11.60
2019-03-19T10:47:01.467Z,11.48
2019-03-19T10:48:01.477Z,11.40
2019-03-19T10:49:01.432Z,11.44
2019-03-19T10:50:01.423Z,11.47
2019-03-19T10:51:01.409Z,11.26
2019-03-19T10:52:01.415Z,11.25
2019-03-19T10:53:01.391Z,11.25
2019-03-19T10:54:01.412Z,11.48
2019-03-19T10:55:01.377Z,11.68
2019-03-19T10:56:01.357Z,11.88
2019-03-19T10:57:01.346Z,11.99
2019-03-19T10:58:10.577Z,11.87
2019-03-19T10:59:02.319Z,11.87
2019-03-19T11:00:01.339Z,11.90
2019-03-19T11:01:01.297Z,11.99
2019-03-19T11:02:01.287Z,12.02
2019-03-19T11:03:01.276Z,11.84
2019-03-19T11:04:01.279Z,11.91
2019-03-19T11:05:01.266Z,11.72
2019-03-19T11:06:01.249Z,11.65
2019-03-19T11:07:01.234Z,11.81
2019-03-19T11:08:01.246Z,12.00
2019-03-19T11:09:01.209Z,11.95
2019-03-19T11:10:01.212Z,11.99
2019-03-19T11:11:03.514Z,11.68
2019-03-19T11:12:01.179Z,11.59
2019-03-19T11:13:01.163Z,11.41
2019-03-19T11:14:01.152Z,11.48
2019-03-19T11:15:01.167Z,11.37
2019-03-19T11:16:01.131Z,11.52
2019-03-19T11:17:01.123Z,11.84
2019-03-19T11:18:01.119Z,11.99
2019-03-19T11:19:01.108Z,12.07
2019-03-19T11:20:01.086Z,12.13
2019-03-19T11:21:01.110Z,12.18
2019-03-19T11:22:01.066Z,12.00
2019-03-19T11:23:01.052Z,11.72
2019-03-19T11:24:01.060Z,11.48
2019-03-19T11:25:01.029Z,11.44
2019-03-19T11:26:01.035Z,11.51
2019-03-19T11:27:01.023Z,11.68
2019-03-19T11:28:01.000Z,11.88
2019-03-19T11:29:00.985Z,11.84
2019-03-19T11:30:01.000Z,11.90
2019-03-19T11:31:00.962Z,11.50
2019-03-19T11:32:00.968Z,11.63
2019-03-19T11:33:00.948Z,11.51
2019-03-19T11:34:00.930Z,11.51
2019-03-19T11:35:00.922Z,11.63
2019-03-19T11:36:00.922Z,11.45
2019-03-19T11:37:00.913Z,11.50
2019-03-19T11:38:00.951Z,11.60
2019-03-19T11:39:00.874Z,11.66
2019-03-19T11:40:00.867Z,11.68
2019-03-19T11:41:00.853Z,11.62
2019-03-19T11:42:00.849Z,11.45
2019-03-19T11:43:00.918Z,11.15
2019-03-19T11:45:20.577Z,11.62
2019-03-19T11:46:20.560Z,11.84
2019-03-19T11:47:20.556Z,12.09
2019-03-19T11:48:20.574Z,12.32
2019-03-19T11:49:20.533Z,12.57
2019-03-19T11:50:20.526Z,12.43
2019-03-19T11:51:20.509Z,12.54
2019-03-19T11:52:20.501Z,12.55
2019-03-19T11:53:20.486Z,12.70
2019-03-19T11:54:20.500Z,12.47
2019-03-19T11:55:20.469Z,12.43
2019-03-19T11:56:20.460Z,12.18
2019-03-19T11:57:20.446Z,12.06
2019-03-19T11:58:20.442Z,12.09
2019-03-19T11:59:20.427Z,12.07
2019-03-19T12:00:20.452Z,12.27
2019-03-19T12:01:20.400Z,12.47
2019-03-19T12:02:25.914Z,12.58
2019-03-19T12:03:21.376Z,12.47
2019-03-19T12:04:20.373Z,12.35
2019-03-19T12:05:20.353Z,12.24
2019-03-19T12:06:20.389Z,12.36
2019-03-19T12:07:20.334Z,12.54
2019-03-19T12:08:20.321Z,12.70
2019-03-19T12:09:20.313Z,12.94
2019-03-19T12:10:20.299Z,13.04
2019-03-19T12:11:20.321Z,13.15
2019-03-19T12:12:20.280Z,13.09
2019-03-19T12:13:20.279Z,13.00
2019-03-19T12:14:20.253Z,12.93
2019-03-19T12:15:20.247Z,12.64
2019-03-19T12:16:20.231Z,12.58
2019-03-19T12:17:20.606Z,12.70
2019-03-19T12:18:20.214Z,12.87
2019-03-19T12:19:20.199Z,12.97
2019-03-19T12:20:20.875Z,12.58
2019-03-19T12:21:20.191Z,12.35
2019-03-19T12:22:20.164Z,12.09
2019-03-19T12:23:20.171Z,12.12
2019-03-19T12:24:20.157Z,12.15
2019-03-19T12:25:20.130Z,12.24
2019-03-19T12:26:20.130Z,12.28
2019-03-19T12:27:20.106Z,12.22
2019-03-19T12:28:20.108Z,12.15
2019-03-19T12:29:20.091Z,12.03
2019-03-19T12:30:22.517Z,12.20
2019-03-19T12:31:20.076Z,12.53
2019-03-19T12:32:20.056Z,12.79
2019-03-19T12:33:20.049Z,13.04
2019-03-19T12:34:20.035Z,13.13
2019-03-19T12:35:20.031Z,13.25
2019-03-19T12:36:20.025Z,13.04
2019-03-19T12:37:20.010Z,12.98
2019-03-19T12:38:19.990Z,12.67
2019-03-19T12:39:19.975Z,12.36
2019-03-19T12:40:20.016Z,12.54
2019-03-19T12:41:19.975Z,12.68
2019-03-19T12:42:19.946Z,12.83
2019-03-19T12:43:19.947Z,13.00
2019-03-19T12:44:19.916Z,13.08
2019-03-19T12:45:19.910Z,13.08
2019-03-19T12:46:19.910Z,12.85
2019-03-19T12:47:19.893Z,12.80
2019-03-19T12:48:19.890Z,12.70
2019-03-19T12:49:19.867Z,12.72
2019-03-19T12:50:19.854Z,12.93
2019-03-19T12:51:19.844Z,12.98
2019-03-19T12:52:19.832Z,13.11
2019-03-19T12:53:19.826Z,12.95
2019-03-19T12:54:19.835Z,12.86
2019-03-19T12:55:19.795Z,13.00
2019-03-19T12:56:19.792Z,12.90
2019-03-19T12:57:19.805Z,12.78
2019-03-19T12:58:19.764Z,12.79
2019-03-19T12:59:20.721Z,12.86
2019-03-19T13:00:19.758Z,12.72
2019-03-19T13:01:19.880Z,12.55
2019-03-19T13:02:19.724Z,12.35
2019-03-19T13:03:19.726Z,12.29
2019-03-19T13:04:19.700Z,12.31
2019-03-19T13:05:22.367Z,12.06
2019-03-19T13:06:19.679Z,11.86
2019-03-19T13:07:19.667Z,11.86
2019-03-19T13:08:20.477Z,11.75
2019-03-19T13:09:19.657Z,11.81
2019-03-19T13:10:19.637Z,12.00
2019-03-19T13:11:19.653Z,12.21
2019-03-19T13:12:19.607Z,12.17
2019-03-19T13:13:19.596Z,12.27